Time;durP1;ratioP1;P1;durP2;ratioP2;P2;SDS_P1;SDS_P2;PMS_P1;PMS_P2;Temp;Humidity;BMP_temperature;BMP_pressure;BME280_temperature;BME280_humidity;BME280_pressure;Samples;Min_cycle;Max_cycle;Signal;HPM_P1;HPM_P2
2021/07/04 00:00:18;;;;;;;11.80;8.38;;;16.40;99.90;;;;;;5114885;28;20120;-75
2021/07/04 00:02:43;;;;;;;15.40;9.68;;;16.40;99.90;;;;;;5114988;28;20024;-74
2021/07/04 00:05:12;;;;;;;20.05;11.57;;;16.30;99.90;;;;;;5114746;28;20374;-74
2021/07/04 00:07:42;;;;;;;15.68;10.95;;;16.20;99.90;;;;;;5116054;28;20027;-74
2021/07/04 00:10:10;;;;;;;18.17;10.38;;;16.20;99.90;;;;;;5114664;28;20055;-73
2021/07/04 00:12:36;;;;;;;13.50;9.15;;;16.10;99.90;;;;;;5115982;28;20102;-74
2021/07/04 00:15:05;;;;;;;15.52;9.25;;;16.00;99.90;;;;;;5115005;28;20119;-74
2021/07/04 00:17:30;;;;;;;12.77;8.60;;;16.00;99.90;;;;;;5115310;28;20374;-73
2021/07/04 00:19:56;;;;;;;11.95;9.45;;;15.90;99.90;;;;;;5105707;27;20027;-74
2021/07/04 00:22:22;;;;;;;12.48;9.35;;;15.80;99.90;;;;;;5094084;28;20375;-73
2021/07/04 00:24:47;;;;;;;14.13;9.02;;;15.80;99.90;;;;;;5113941;28;20036;-74
2021/07/04 00:27:13;;;;;;;11.10;8.30;;;15.70;99.90;;;;;;5115868;28;20019;-74
2021/07/04 00:29:38;;;;;;;22.50;12.90;;;15.70;99.90;;;;;;5115735;28;20020;-74
2021/07/04 00:32:04;;;;;;;17.25;11.63;;;15.60;99.90;;;;;;5115394;28;20370;-73
2021/07/04 00:34:30;;;;;;;17.75;10.90;;;15.50;99.90;;;;;;5114066;28;20034;-74
2021/07/04 00:36:56;;;;;;;13.60;9.90;;;15.40;99.90;;;;;;5114244;28;20489;-74
2021/07/04 00:39:21;;;;;;;14.38;10.40;;;15.30;99.90;;;;;;5115485;28;20031;-74
2021/07/04 00:41:47;;;;;;;15.23;11.45;;;15.30;99.90;;;;;;5114143;28;20016;-73
2021/07/04 00:44:13;;;;;;;18.90;11.05;;;15.30;99.90;;;;;;5114042;28;20042;-74
2021/07/04 00:46:38;;;;;;;15.55;10.70;;;15.20;99.90;;;;;;5115303;28;20389;-73
2021/07/04 00:49:04;;;;;;;13.40;9.93;;;15.20;99.90;;;;;;5106902;28;20371;-75
2021/07/04 00:51:30;;;;;;;13.90;9.52;;;15.10;99.90;;;;;;5093474;28;20389;-73
2021/07/04 00:53:57;;;;;;;13.90;10.65;;;15.00;99.90;;;;;;5094864;28;20028;-73
2021/07/04 00:56:22;;;;;;;16.42;10.40;;;15.00;99.90;;;;;;5093385;28;20027;-74
2021/07/04 00:58:48;;;;;;;12.68;9.70;;;14.90;99.90;;;;;;5094784;28;20028;-73
2021/07/04 01:01:14;;;;;;;17.13;9.68;;;14.90;99.90;;;;;;5094546;28;20031;-74
2021/07/04 01:03:39;;;;;;;16.40;11.73;;;14.80;99.90;;;;;;5094547;28;20046;-73
2021/07/04 01:06:05;;;;;;;15.98;10.50;;;14.80;99.90;;;;;;5094532;28;20034;-73
2021/07/04 01:08:31;;;;;;;12.77;9.73;;;14.80;99.90;;;;;;5094547;28;20051;-74
2021/07/04 01:10:57;;;;;;;15.98;10.52;;;14.70;99.90;;;;;;5094627;28;20040;-73
2021/07/04 01:13:22;;;;;;;17.50;10.73;;;14.70;99.90;;;;;;5093182;28;20027;-75
2021/07/04 01:15:49;;;;;;;13.52;9.80;;;14.60;99.90;;;;;;5094368;28;20039;-73
2021/07/04 01:18:15;;;;;;;14.98;10.75;;;14.60;99.90;;;;;;5097631;28;20464;-73
2021/07/04 01:20:41;;;;;;;14.30;11.20;;;14.60;99.90;;;;;;5113438;28;20037;-73
2021/07/04 01:23:11;;;;;;;18.08;11.20;;;14.50;99.90;;;;;;5112952;28;20393;-73
2021/07/04 01:25:44;;;;;;;19.00;13.13;;;14.50;99.90;;;;;;5114193;28;20072;-73
2021/07/04 01:28:09;;;;;;;;;;;14.40;99.90;;;;;;5114644;28;20381;-74
2021/07/04 01:30:35;;;;;;;17.90;11.10;;;14.30;99.90;;;;;;5114582;28;19904;-73
2021/07/04 01:33:01;;;;;;;16.13;11.57;;;14.30;99.90;;;;;;5114504;28;20403;-74
2021/07/04 01:35:27;;;;;;;15.18;10.38;;;14.30;99.90;;;;;;5114419;28;20040;-73
2021/07/04 01:37:53;;;;;;;17.58;10.82;;;14.20;99.90;;;;;;5113050;28;20019;-73
2021/07/04 01:40:19;;;;;;;16.45;11.82;;;14.20;99.90;;;;;;5114257;28;20020;-74
2021/07/04 01:42:45;;;;;;;13.63;10.55;;;14.20;99.90;;;;;;5112516;28;20107;-73
2021/07/04 01:45:15;;;;;;;13.40;9.98;;;14.20;99.90;;;;;;5114077;28;20031;-74
2021/07/04 01:47:42;;;;;;;15.93;10.88;;;14.10;99.90;;;;;;5112882;28;20022;-73
2021/07/04 01:50:12;;;;;;;17.63;11.80;;;14.10;99.90;;;;;;5112858;28;20050;-74
2021/07/04 01:52:38;;;;;;;16.38;10.38;;;14.10;99.90;;;;;;5113042;28;20433;-73
2021/07/04 01:55:07;;;;;;;17.90;11.30;;;14.00;99.90;;;;;;5112791;28;20027;-73
2021/07/04 01:57:33;;;;;;;21.00;12.40;;;14.00;99.90;;;;;;5113994;28;20051;-73
2021/07/04 02:00:12;;;;;;;22.63;13.60;;;13.90;99.90;;;;;;5113938;28;20095;-73
2021/07/04 02:02:40;;;;;;;17.23;11.27;;;13.90;99.90;;;;;;5112608;28;20050;-73
2021/07/04 02:05:06;;;;;;;13.77;10.15;;;13.90;99.90;;;;;;5113639;28;20067;-73
2021/07/04 02:07:32;;;;;;;14.68;11.05;;;13.80;99.90;;;;;;5097242;28;20024;-73
2021/07/04 02:09:58;;;;;;;15.18;11.05;;;13.80;99.90;;;;;;5092115;28;20073;-73
2021/07/04 02:12:24;;;;;;;14.73;10.77;;;13.80;99.90;;;;;;5093593;28;20061;-73
2021/07/04 02:14:51;;;;;;;13.52;10.73;;;13.70;99.90;;;;;;5093690;28;20040;-74
2021/07/04 02:17:16;;;;;;;14.15;10.40;;;13.70;99.90;;;;;;5093201;28;20104;-73
2021/07/04 02:19:43;;;;;;;13.25;9.55;;;13.70;99.90;;;;;;5092013;28;20020;-74
2021/07/04 02:22:11;;;;;;;10.32;8.60;;;13.60;99.90;;;;;;5093114;28;20491;-73
2021/07/04 02:24:37;;;;;;;9.00;8.10;;;13.60;99.90;;;;;;5093137;28;20039;-73
2021/07/04 02:27:04;;;;;;;8.80;6.97;;;13.60;99.90;;;;;;5093120;28;20020;-73
2021/07/04 02:29:30;;;;;;;9.48;7.68;;;13.60;99.90;;;;;;5093135;28;20020;-73
2021/07/04 02:31:56;;;;;;;9.43;7.60;;;13.60;99.90;;;;;;5093017;28;20545;-73
2021/07/04 02:34:22;;;;;;;7.28;6.47;;;13.50;99.90;;;;;;5092913;28;20012;-74
2021/07/04 02:36:47;;;;;;;6.32;5.70;;;13.50;99.90;;;;;;5110391;28;20396;-73
2021/07/04 02:39:14;;;;;;;7.20;6.43;;;13.50;99.90;;;;;;5112613;28;20031;-73
2021/07/04 02:41:41;;;;;;;6.45;5.68;;;13.50;99.90;;;;;;5113337;28;20020;-73
2021/07/04 02:44:08;;;;;;;6.78;6.07;;;13.50;99.90;;;;;;5113218;28;20160;-73
2021/07/04 02:46:33;;;;;;;5.95;5.35;;;13.50;99.90;;;;;;5112020;28;20023;-74
2021/07/04 02:48:59;;;;;;;5.75;5.25;;;13.50;99.90;;;;;;5112937;28;20035;-74
2021/07/04 02:51:25;;;;;;;6.90;6.20;;;13.50;99.90;;;;;;5113216;28;20020;-73
2021/07/04 02:53:50;;;;;;;7.20;6.50;;;13.50;99.90;;;;;;5112036;28;20385;-74
2021/07/04 02:56:16;;;;;;;7.00;6.40;;;13.50;99.90;;;;;;5113151;28;20069;-73
2021/07/04 02:58:41;;;;;;;7.43;6.68;;;13.50;99.90;;;;;;5112026;28;20561;-75
2021/07/04 03:01:07;;;;;;;9.63;8.07;;;13.60;99.90;;;;;;5113133;28;20024;-73
2021/07/04 03:03:33;;;;;;;10.00;8.38;;;13.60;99.90;;;;;;5113129;28;20024;-73
2021/07/04 03:05:58;;;;;;;10.60;8.00;;;13.70;99.90;;;;;;5095810;28;20042;-73
2021/07/04 03:08:24;;;;;;;15.85;10.02;;;13.70;99.90;;;;;;5092774;28;20020;-74
2021/07/04 03:10:50;;;;;;;21.58;10.93;;;13.80;99.90;;;;;;5091506;28;20446;-73
2021/07/04 03:13:16;;;;;;;15.80;10.60;;;13.80;99.90;;;;;;5091499;28;20400;-73
2021/07/04 03:15:41;;;;;;;20.13;12.35;;;13.90;99.90;;;;;;5091417;28;20465;-73
2021/07/04 03:18:07;;;;;;;12.63;8.65;;;13.90;99.90;;;;;;5092627;28;20027;-74
2021/07/04 03:20:33;;;;;;;11.18;8.48;;;13.90;99.90;;;;;;5091413;28;20024;-74
2021/07/04 03:22:58;;;;;;;9.07;8.18;;;14.00;99.90;;;;;;5092629;28;20523;-74
2021/07/04 03:25:24;;;;;;;8.18;7.38;;;14.00;99.90;;;;;;5091997;28;20032;-74
2021/07/04 03:27:50;;;;;;;8.57;7.68;;;14.00;99.90;;;;;;5091270;28;20051;-73
2021/07/04 03:30:19;;;;;;;9.43;8.45;;;14.00;99.90;;;;;;5091266;28;20024;-74
2021/07/04 03:32:45;;;;;;;11.82;9.30;;;14.00;99.90;;;;;;5097076;28;20016;-73
2021/07/04 03:35:13;;;;;;;12.32;8.75;;;14.10;99.90;;;;;;5112874;28;20015;-73
2021/07/04 03:37:40;;;;;;;9.07;8.18;;;14.20;99.90;;;;;;5111530;28;20104;-73
2021/07/04 03:40:08;;;;;;;10.50;8.65;;;14.20;99.90;;;;;;5112832;28;20020;-73
2021/07/04 03:42:34;;;;;;;10.20;8.18;;;14.30;99.90;;;;;;5112705;28;20485;-73
2021/07/04 03:44:59;;;;;;;11.88;8.77;;;14.30;99.90;;;;;;5112725;28;20112;-74
2021/07/04 03:47:26;;;;;;;11.68;9.43;;;14.30;99.90;;;;;;5111440;28;20073;-73
2021/07/04 03:49:55;;;;;;;11.90;9.55;;;14.40;99.90;;;;;;5111955;28;20016;-74
2021/07/04 03:52:21;;;;;;;13.75;9.15;;;14.30;99.90;;;;;;5116366;28;20024;-73
2021/07/04 03:54:47;;;;;;;15.23;10.02;;;14.30;99.90;;;;;;5115189;28;20022;-73
2021/07/04 03:57:23;;;;;;;16.05;11.57;;;14.30;99.90;;;;;;5113137;28;20027;-73
2021/07/04 04:00:08;;;;;;;17.15;12.20;;;14.30;99.90;;;;;;5095005;28;20024;-73
2021/07/04 04:02:33;;;;;;;17.42;13.65;;;14.30;99.90;;;;;;5094573;28;20028;-74
2021/07/04 04:04:59;;;;;;;18.98;14.52;;;14.40;99.90;;;;;;5100218;28;20445;-74
2021/07/04 04:07:26;;;;;;;19.67;15.48;;;14.40;99.90;;;;;;5116080;28;20098;-74
2021/07/04 04:09:52;;;;;;;17.90;13.57;;;14.50;99.90;;;;;;5114709;28;20015;-74
2021/07/04 04:12:20;;;;;;;16.20;12.68;;;14.60;99.90;;;;;;5116413;28;20035;-74
2021/07/04 04:14:45;;;;;;;14.98;12.15;;;14.80;99.90;;;;;;5116066;28;20023;-74
2021/07/04 04:17:12;;;;;;;20.50;13.65;;;14.80;99.90;;;;;;5114576;28;20434;-73
2021/07/04 04:19:38;;;;;;;18.27;13.13;;;15.00;99.90;;;;;;5114651;28;20031;-74
2021/07/04 04:22:03;;;;;;;15.52;12.57;;;15.20;99.90;;;;;;5114501;28;20020;-74
2021/07/04 04:24:29;;;;;;;19.05;14.52;;;15.30;99.90;;;;;;5115832;28;20084;-75
2021/07/04 04:26:55;;;;;;;18.80;14.02;;;15.40;99.90;;;;;;5110083;28;20488;-74
2021/07/04 04:29:20;;;;;;;19.63;14.70;;;15.50;99.90;;;;;;5087515;28;20028;-74
2021/07/04 04:31:47;;;;;;;16.63;13.10;;;15.60;99.90;;;;;;5096361;28;20023;-74
2021/07/04 04:34:13;;;;;;;19.17;14.40;;;15.60;99.90;;;;;;5114359;27;20023;-74
2021/07/04 04:36:39;;;;;;;16.95;13.98;;;15.60;99.90;;;;;;5111669;28;20023;-74
2021/07/04 04:39:06;;;;;;;19.55;14.98;;;15.50;99.90;;;;;;5113785;28;20028;-74
2021/07/04 04:41:34;;;;;;;18.63;13.93;;;15.40;99.90;;;;;;5110695;28;20602;-74
2021/07/04 04:44:00;;;;;;;20.80;15.23;;;15.30;99.90;;;;;;5112985;28;20537;-74
2021/07/04 04:46:26;;;;;;;20.02;14.85;;;15.20;99.90;;;;;;5111270;27;20469;-74
2021/07/04 04:48:52;;;;;;;22.00;15.48;;;15.10;99.90;;;;;;5112442;28;20050;-74
2021/07/04 04:51:18;;;;;;;20.25;16.20;;;15.10;99.90;;;;;;5112611;27;20492;-74
2021/07/04 04:53:43;;;;;;;21.60;15.25;;;15.10;99.90;;;;;;5113373;28;20031;-74
2021/07/04 04:56:09;;;;;;;20.15;14.82;;;15.20;99.90;;;;;;5101073;27;20107;-74
2021/07/04 04:58:34;;;;;;;19.63;14.68;;;15.20;99.90;;;;;;5093525;28;20024;-75
2021/07/04 05:01:00;;;;;;;18.85;14.93;;;15.40;99.90;;;;;;5092294;28;20054;-74
2021/07/04 05:03:26;;;;;;;20.17;13.85;;;15.50;99.90;;;;;;5098435;28;20077;-74
2021/07/04 05:05:51;;;;;;;21.60;14.35;;;15.70;99.90;;;;;;5113733;28;20028;-74
2021/07/04 05:08:17;;;;;;;18.25;12.25;;;16.00;99.90;;;;;;5114948;28;20547;-74
2021/07/04 05:10:42;;;;;;;18.50;12.63;;;16.20;99.90;;;;;;5113674;28;20032;-74
2021/07/04 05:13:08;;;;;;;15.77;11.95;;;16.50;99.90;;;;;;5114876;28;20082;-74
2021/07/04 05:15:34;;;;;;;18.10;13.25;;;16.70;99.90;;;;;;5114849;28;20026;-74
2021/07/04 05:18:05;;;;;;;14.07;9.98;;;16.90;99.90;;;;;;5114791;28;20055;-74
2021/07/04 05:20:31;;;;;;;13.15;9.48;;;17.10;99.90;;;;;;5114692;28;20027;-74
2021/07/04 05:22:57;;;;;;;15.32;9.20;;;17.20;95.60;;;;;;5114646;28;20030;-75
2021/07/04 05:25:23;;;;;;;15.13;9.35;;;17.30;95.70;;;;;;5099337;28;20123;-75
2021/07/04 05:27:48;;;;;;;13.38;8.75;;;17.40;92.20;;;;;;5094141;28;20579;-74
2021/07/04 05:30:14;;;;;;;11.35;8.88;;;17.40;92.60;;;;;;5092852;28;20460;-74
2021/07/04 05:32:40;;;;;;;13.75;10.10;;;17.50;93.70;;;;;;5093906;28;20469;-74
2021/07/04 05:35:07;;;;;;;13.77;8.27;;;17.60;94.50;;;;;;5109536;28;20059;-74
2021/07/04 05:37:33;;;;;;;11.30;8.32;;;17.70;90.90;;;;;;5094066;28;20023;-74
2021/07/04 05:40:02;;;;;;;10.32;7.93;;;17.90;91.30;;;;;;5109685;28;20099;-75
2021/07/04 05:42:28;;;;;;;12.32;6.63;;;18.10;91.00;;;;;;5093846;28;20058;-75
2021/07/04 05:44:54;;;;;;;9.90;7.00;;;18.20;88.30;;;;;;5109602;28;20036;-75
2021/07/04 05:47:19;;;;;;;11.15;7.07;;;18.30;85.30;;;;;;5093744;28;20039;-75
2021/07/04 05:49:45;;;;;;;8.23;6.93;;;18.50;84.50;;;;;;5093817;28;20060;-75
2021/07/04 05:52:11;;;;;;;7.40;6.57;;;18.60;84.60;;;;;;5093637;28;20051;-74
2021/07/04 05:54:37;;;;;;;7.85;6.18;;;18.80;83.30;;;;;;5096952;28;20031;-76
2021/07/04 05:57:06;;;;;;;10.20;7.13;;;19.00;83.40;;;;;;5112740;28;20119;-75
2021/07/04 05:59:35;;;;;;;11.70;6.57;;;19.00;81.00;;;;;;5113964;28;20027;-75
2021/07/04 06:02:01;;;;;;;10.20;6.22;;;19.10;82.50;;;;;;5113938;28;20031;-75
2021/07/04 06:04:27;;;;;;;12.05;6.90;;;19.20;78.00;;;;;;5113816;27;20039;-74
2021/07/04 06:06:53;;;;;;;9.02;6.50;;;19.10;76.70;;;;;;5113693;28;20388;-75
2021/07/04 06:09:18;;;;;;;10.52;7.63;;;19.10;76.80;;;;;;5107452;28;20465;-75
2021/07/04 06:11:48;;;;;;;11.00;7.63;;;19.00;76.70;;;;;;5093279;28;20028;-74
2021/07/04 06:14:13;;;;;;;10.43;7.28;;;19.10;77.70;;;;;;5100751;28;20073;-75
2021/07/04 06:16:39;;;;;;;9.50;7.05;;;19.10;77.90;;;;;;5112094;28;20027;-75
2021/07/04 06:19:05;;;;;;;9.95;7.22;;;19.20;78.10;;;;;;5112179;28;20095;-75
2021/07/04 06:21:30;;;;;;;9.35;6.90;;;19.10;78.20;;;;;;5110844;28;20027;-75
2021/07/04 06:23:56;;;;;;;15.52;7.40;;;19.30;78.30;;;;;;5110912;28;20446;-75
2021/07/04 06:26:21;;;;;;;8.57;6.63;;;19.50;78.10;;;;;;5111970;28;20015;-75
2021/07/04 06:28:47;;;;;;;9.63;6.90;;;19.70;76.50;;;;;;5110940;28;20020;-75
2021/07/04 06:31:13;;;;;;;11.73;7.95;;;19.90;77.20;;;;;;5111948;28;20019;-74
2021/07/04 06:33:38;;;;;;;12.05;7.57;;;19.80;73.00;;;;;;5112044;28;20098;-75
2021/07/04 06:36:04;;;;;;;10.40;6.85;;;19.80;73.00;;;;;;5111847;28;20384;-75
2021/07/04 06:38:30;;;;;;;8.95;6.90;;;19.80;75.40;;;;;;5111492;28;20058;-75
2021/07/04 06:40:56;;;;;;;8.73;6.13;;;20.00;74.50;;;;;;5110845;28;20024;-75
2021/07/04 06:43:21;;;;;;;22.52;7.13;;;20.20;76.50;;;;;;5110548;28;20106;-75
2021/07/04 06:45:48;;;;;;;7.35;6.55;;;20.20;73.30;;;;;;5111923;28;20039;-75
2021/07/04 06:48:13;;;;;;;7.70;6.40;;;20.30;71.40;;;;;;5110541;28;20020;-76
2021/07/04 06:50:39;;;;;;;9.57;6.90;;;20.20;71.60;;;;;;5110601;28;20019;-75
2021/07/04 06:53:04;;;;;;;10.52;6.60;;;20.30;72.70;;;;;;5111647;28;20028;-75
2021/07/04 06:55:30;;;;;;;8.10;6.32;;;20.50;73.90;;;;;;5110635;28;20354;-76
2021/07/04 06:57:56;;;;;;;7.55;5.97;;;20.70;72.10;;;;;;5110518;28;20118;-75
2021/07/04 07:00:22;;;;;;;9.40;5.88;;;20.80;71.70;;;;;;5111794;28;20019;-74
2021/07/04 07:02:48;;;;;;;8.52;5.30;;;20.40;71.00;;;;;;5111846;28;20049;-74
2021/07/04 07:05:14;;;;;;;8.85;6.05;;;20.50;69.80;;;;;;5110305;28;20034;-75
2021/07/04 07:07:41;;;;;;;7.28;5.78;;;20.40;69.50;;;;;;5109582;28;20097;-74
2021/07/04 07:10:08;;;;;;;7.47;5.47;;;20.50;69.20;;;;;;5110257;28;20077;-75
2021/07/04 07:12:34;;;;;;;7.90;5.18;;;20.50;68.00;;;;;;5111565;28;20023;-75
2021/07/04 07:15:00;;;;;;;5.78;5.18;;;20.40;68.30;;;;;;5106590;28;20072;-75
2021/07/04 07:17:26;;;;;;;6.57;5.60;;;20.30;68.30;;;;;;5111036;28;20110;-75
2021/07/04 07:19:52;;;;;;;9.73;5.70;;;20.10;69.20;;;;;;5111151;28;20104;-75
2021/07/04 07:22:19;;;;;;;7.97;5.25;;;20.10;69.00;;;;;;5109739;28;20054;-75
2021/07/04 07:24:46;;;;;;;7.63;5.25;;;20.10;68.20;;;;;;5111534;28;20027;-75
2021/07/04 07:27:11;;;;;;;8.75;5.72;;;20.20;68.90;;;;;;5111743;28;20369;-75
2021/07/04 07:29:37;;;;;;;7.75;5.43;;;20.60;68.60;;;;;;5105999;28;20358;-75
2021/07/04 07:32:03;;;;;;;6.03;5.15;;;20.70;68.00;;;;;;5098360;28;20488;-75
2021/07/04 07:34:29;;;;;;;11.10;5.18;;;20.50;67.90;;;;;;5096877;28;20065;-75
2021/07/04 07:36:54;;;;;;;6.03;5.00;;;20.90;68.90;;;;;;5111990;27;20028;-74
2021/07/04 07:39:20;;;;;;;5.85;5.28;;;20.90;66.60;;;;;;5115168;28;20016;-75
2021/07/04 07:41:46;;;;;;;8.65;5.90;;;21.00;66.60;;;;;;5115083;28;20560;-75
2021/07/04 07:44:14;;;;;;;7.10;4.85;;;21.00;68.60;;;;;;5113784;28;20488;-75
2021/07/04 07:46:40;;;;;;;5.60;5.10;;;21.10;66.80;;;;;;5114502;28;20024;-75
2021/07/04 07:49:07;;;;;;;9.93;6.07;;;21.00;66.90;;;;;;5111604;28;20046;-75
2021/07/04 07:51:33;;;;;;;5.45;4.85;;;21.30;66.80;;;;;;5111026;28;20091;-75
2021/07/04 07:53:59;;;;;;;6.18;4.88;;;21.20;66.10;;;;;;5111820;28;20590;-74
2021/07/04 07:56:25;;;;;;;6.85;5.85;;;21.40;64.30;;;;;;5112755;28;20028;-74
2021/07/04 07:58:51;;;;;;;6.72;5.25;;;21.40;63.40;;;;;;5111366;28;20024;-76
2021/07/04 08:01:17;;;;;;;6.25;4.95;;;21.60;65.00;;;;;;5111170;28;20088;-75
2021/07/04 08:03:43;;;;;;;5.75;4.75;;;21.50;63.40;;;;;;5110900;28;20035;-75
2021/07/04 08:06:10;;;;;;;5.32;4.45;;;21.30;63.00;;;;;;5112679;28;20020;-74
2021/07/04 08:08:36;;;;;;;6.85;4.55;;;21.50;64.20;;;;;;5110130;28;20027;-75
2021/07/04 08:11:03;;;;;;;6.53;4.75;;;21.40;62.90;;;;;;5112215;28;20031;-76
2021/07/04 08:13:29;;;;;;;5.93;4.57;;;21.40;63.00;;;;;;5112563;27;20525;-75
2021/07/04 08:15:55;;;;;;;4.60;4.20;;;21.50;63.80;;;;;;5112901;28;20028;-74
2021/07/04 08:18:24;;;;;;;6.57;5.13;;;21.50;62.50;;;;;;5112492;28;20470;-75
2021/07/04 08:20:49;;;;;;;7.38;5.47;;;21.70;62.70;;;;;;5112160;28;20372;-75
2021/07/04 08:23:16;;;;;;;5.43;4.63;;;22.10;62.00;;;;;;5113770;28;20022;-76
2021/07/04 08:25:42;;;;;;;6.75;5.47;;;22.20;60.80;;;;;;5108802;28;20027;-75
2021/07/04 08:28:08;;;;;;;6.50;5.45;;;22.30;61.00;;;;;;5099188;28;20054;-76
2021/07/04 08:30:34;;;;;;;5.03;4.32;;;22.50;61.50;;;;;;5105117;28;20027;-76
2021/07/04 08:32:59;;;;;;;6.03;4.70;;;22.70;61.00;;;;;;5112174;28;20028;-75
2021/07/04 08:35:25;;;;;;;6.88;5.32;;;22.70;59.90;;;;;;5113522;28;20055;-77
2021/07/04 08:37:51;;;;;;;5.60;4.65;;;22.50;59.10;;;;;;5109514;28;20487;-75
2021/07/04 08:40:17;;;;;;;6.32;4.60;;;22.30;59.20;;;;;;5109324;28;20027;-76
2021/07/04 08:42:42;;;;;;;9.07;4.72;;;22.30;59.70;;;;;;5107741;22;20115;-78
2021/07/04 08:45:09;;;;;;;6.88;4.32;;;22.40;59.70;;;;;;5050523;22;20501;-77
2021/07/04 08:47:35;;;;;;;7.35;5.22;;;22.60;59.70;;;;;;5034475;28;20386;-77
2021/07/04 08:50:01;;;;;;;6.53;5.18;;;22.40;59.60;;;;;;5032062;28;20030;-77
2021/07/04 08:52:26;;;;;;;7.07;5.50;;;22.30;61.10;;;;;;5030576;28;20036;-78
2021/07/04 08:54:52;;;;;;;7.07;4.43;;;22.20;61.10;;;;;;5014098;28;20029;-77
2021/07/04 08:57:18;;;;;;;5.30;4.57;;;22.60;61.60;;;;;;5014235;28;20030;-77
2021/07/04 08:59:46;;;;;;;7.05;5.55;;;23.00;61.00;;;;;;5030801;28;20513;-77
2021/07/04 09:02:15;;;;;;;5.72;4.43;;;22.70;59.20;;;;;;5013673;28;20402;-77
2021/07/04 09:05:02;;;;;;;5.10;4.57;;;22.90;59.50;;;;;;5013904;28;20036;-76
2021/07/04 09:07:30;;;;;;;6.97;4.72;;;23.30;60.10;;;;;;5041872;28;20025;-76
2021/07/04 09:10:02;;;;;;;6.18;4.63;;;22.90;59.50;;;;;;5032276;28;20090;-76
2021/07/04 09:12:45;;;;;;;6.32;4.65;;;22.40;58.70;;;;;;5032746;28;20025;-76
2021/07/04 09:15:16;;;;;;;4.07;3.67;;;22.60;58.70;;;;;;5030439;28;20045;-76
2021/07/04 09:17:45;;;;;;;7.00;4.72;;;23.00;58.50;;;;;;5032375;28;20018;-76
2021/07/04 09:20:34;;;;;;;6.20;5.40;;;23.10;57.60;;;;;;5032208;28;20033;-76
2021/07/04 09:23:02;;;;;;;5.63;4.45;;;23.20;57.80;;;;;;5031623;28;20497;-76
2021/07/04 09:25:31;;;;;;;7.53;4.35;;;22.90;58.00;;;;;;5031992;28;20502;-76
2021/07/04 09:28:04;;;;;;;5.57;4.75;;;22.70;57.80;;;;;;5015116;28;20027;-77
2021/07/04 09:30:36;;;;;;;4.85;4.35;;;22.80;58.40;;;;;;5030267;28;20006;-76
2021/07/04 09:33:23;;;;;;;5.73;5.13;;;22.90;57.30;;;;;;5014192;28;20036;-75
2021/07/04 09:36:05;;;;;;;5.65;4.65;;;23.30;57.80;;;;;;5030625;28;20286;-76
2021/07/04 09:38:43;;;;;;;8.43;4.57;;;23.70;56.10;;;;;;5012794;28;20063;-76
2021/07/04 09:41:12;;;;;;;5.15;4.45;;;23.90;57.00;;;;;;5028922;28;20038;-76
2021/07/04 09:43:39;;;;;;;5.50;4.38;;;24.00;56.00;;;;;;5029800;28;20108;-76
2021/07/04 09:46:07;;;;;;;4.80;4.10;;;24.20;55.30;;;;;;5031183;28;20099;-75
2021/07/04 09:48:42;;;;;;;5.28;3.83;;;24.30;54.80;;;;;;5011545;28;20021;-76
2021/07/04 09:51:20;;;;;;;4.85;4.13;;;24.40;53.60;;;;;;5023499;28;20021;-75
2021/07/04 09:53:50;;;;;;;5.80;4.32;;;24.30;53.70;;;;;;5010347;28;20056;-77
2021/07/04 09:56:19;;;;;;;6.18;4.53;;;24.00;52.90;;;;;;5030379;28;20052;-76
2021/07/04 09:58:48;;;;;;;6.35;4.30;;;23.80;53.50;;;;;;5031769;28;20033;-76
2021/07/04 10:01:45;;;;;;;6.82;4.63;;;23.60;54.30;;;;;;5030577;28;20083;-76
2021/07/04 10:04:29;;;;;;;4.70;4.20;;;23.50;55.30;;;;;;5014294;28;20120;-76
2021/07/04 10:06:56;;;;;;;4.57;4.18;;;23.60;56.10;;;;;;5024583;28;20025;-76
2021/07/04 10:09:26;;;;;;;5.03;4.10;;;23.60;55.30;;;;;;5027546;28;20022;-75
2021/07/04 10:11:52;;;;;;;5.57;4.57;;;23.80;54.60;;;;;;5028747;28;20020;-76
2021/07/04 10:14:19;;;;;;;5.40;4.32;;;24.00;53.90;;;;;;5007676;28;20022;-77
2021/07/04 10:16:46;;;;;;;7.47;4.30;;;24.30;55.00;;;;;;5010493;28;20036;-77
2021/07/04 10:19:20;;;;;;;4.50;4.10;;;24.30;53.80;;;;;;5013902;28;20152;-79
2021/07/04 10:21:56;;;;;;;5.25;4.75;;;24.10;52.60;;;;;;5011436;28;20133;-76
2021/07/04 10:24:23;;;;;;;4.95;3.72;;;23.90;53.20;;;;;;5007243;28;20029;-75
2021/07/04 10:26:50;;;;;;;5.90;3.67;;;23.70;51.80;;;;;;5011694;28;20037;-77
2021/07/04 10:29:19;;;;;;;4.10;3.70;;;24.10;51.90;;;;;;5028300;28;20048;-77
2021/07/04 10:31:44;;;;;;;5.13;4.63;;;24.50;53.00;;;;;;5027300;28;20044;-76
2021/07/04 10:34:18;;;;;;;4.00;3.70;;;24.50;53.90;;;;;;5026979;28;20018;-76
2021/07/04 10:37:04;;;;;;;6.25;4.05;;;24.00;52.70;;;;;;5008818;28;20021;-76
2021/07/04 10:39:32;;;;;;;5.18;4.65;;;23.60;53.60;;;;;;5007589;28;20064;-76
2021/07/04 10:42:09;;;;;;;5.03;4.03;;;23.20;54.40;;;;;;5003086;28;20022;-77
2021/07/04 10:44:35;;;;;;;7.55;5.03;;;23.50;55.20;;;;;;5011377;28;20067;-76
2021/07/04 10:47:04;;;;;;;7.47;4.65;;;23.70;54.90;;;;;;5006642;28;20025;-76
2021/07/04 10:49:45;;;;;;;5.30;4.20;;;24.20;55.20;;;;;;5012480;28;20124;-76
2021/07/04 10:52:33;;;;;;;5.68;4.10;;;24.50;52.40;;;;;;5027664;28;20075;-77
2021/07/04 10:55:00;;;;;;;4.22;3.83;;;24.60;50.80;;;;;;5028915;28;20160;-77
2021/07/04 10:57:32;;;;;;;4.22;3.92;;;24.80;48.00;;;;;;5025041;28;20030;-75
2021/07/04 11:00:06;;;;;;;3.90;3.47;;;24.80;50.90;;;;;;5028708;28;20040;-75
2021/07/04 11:02:59;;;;;;;5.75;4.35;;;25.20;51.10;;;;;;5010000;28;20025;-75
2021/07/04 11:05:40;;;;;;;6.53;4.53;;;25.40;50.80;;;;;;5031255;28;20068;-76
2021/07/04 11:08:18;;;;;;;5.22;4.32;;;25.00;50.30;;;;;;5012649;28;20425;-76
2021/07/04 11:10:59;;;;;;;5.40;3.70;;;24.60;49.90;;;;;;5033245;28;20021;-75
2021/07/04 11:13:27;;;;;;;4.30;3.97;;;24.30;50.40;;;;;;5012878;28;20414;-75
2021/07/04 11:16:06;;;;;;;5.80;3.65;;;24.20;51.50;;;;;;5031112;28;20433;-76
2021/07/04 11:18:55;;;;;;;3.88;3.58;;;24.30;51.30;;;;;;5033140;28;20040;-76
2021/07/04 11:21:47;;;;;;;5.38;3.65;;;24.00;51.00;;;;;;5013076;28;20029;-76
2021/07/04 11:24:17;;;;;;;3.97;3.70;;;23.70;51.20;;;;;;5012889;28;20048;-77
2021/07/04 11:27:15;;;;;;;4.47;4.07;;;23.70;51.60;;;;;;5013199;28;20021;-77
2021/07/04 11:30:18;;;;;;;9.25;4.90;;;24.00;52.30;;;;;;5029271;28;20029;-76
2021/07/04 11:32:45;;;;;;;3.53;3.22;;;24.50;51.60;;;;;;5068793;22;20060;-75
2021/07/04 11:35:11;;;;;;;4.45;3.75;;;24.80;51.40;;;;;;5078812;28;20016;-75
2021/07/04 11:37:38;;;;;;;4.50;4.10;;;25.10;50.60;;;;;;5078156;28;20029;-75
2021/07/04 11:40:04;;;;;;;5.65;4.43;;;24.80;51.10;;;;;;5070160;28;20453;-74
2021/07/04 11:42:30;;;;;;;7.22;4.13;;;24.40;52.10;;;;;;5071504;28;20471;-74
2021/07/04 11:44:55;;;;;;;5.28;4.10;;;24.00;51.50;;;;;;5072474;28;20068;-76
2021/07/04 11:47:21;;;;;;;5.55;4.20;;;24.10;51.90;;;;;;5074273;28;20052;-75
2021/07/04 11:49:46;;;;;;;4.32;3.72;;;24.20;50.80;;;;;;5075165;28;20016;-75
2021/07/04 11:52:19;;;;;;;4.97;4.13;;;24.30;50.80;;;;;;5075570;28;20107;-75
2021/07/04 11:54:45;;;;;;;5.45;4.47;;;24.20;49.90;;;;;;5072112;28;20033;-75
2021/07/04 12:00:07;;;;;;;4.65;4.05;;;24.30;50.60;;;;;;5071570;28;20067;-75
2021/07/04 12:02:42;;;;;;;4.93;4.53;;;24.20;51.60;;;;;;5076624;28;20396;-75
2021/07/04 12:05:12;;;;;;;4.05;3.63;;;24.10;53.00;;;;;;5075488;28;20032;-75
2021/07/04 12:07:38;;;;;;;4.20;3.80;;;24.40;52.60;;;;;;5073688;28;20542;-75
2021/07/04 12:10:05;;;;;;;5.63;4.15;;;24.50;53.00;;;;;;5083164;28;20032;-75
2021/07/04 12:12:35;;;;;;;4.65;3.97;;;24.70;52.50;;;;;;5069404;28;20025;-76
2021/07/04 12:15:08;;;;;;;4.50;4.05;;;24.80;51.90;;;;;;5074679;28;20021;-76
2021/07/04 12:17:40;;;;;;;4.55;4.15;;;24.80;51.30;;;;;;5074604;28;20021;-76
2021/07/04 12:20:26;;;;;;;4.97;3.75;;;25.00;50.60;;;;;;5074786;28;20363;-80
2021/07/04 12:22:56;;;;;;;4.35;3.58;;;25.20;50.20;;;;;;5057910;28;20029;-79
2021/07/04 12:25:33;;;;;;;4.82;3.22;;;25.40;49.50;;;;;;5073801;28;20037;-77
2021/07/04 12:28:04;;;;;;;3.90;3.50;;;25.30;48.10;;;;;;5073324;28;20418;-77
2021/07/04 12:30:40;;;;;;;4.22;3.83;;;25.50;49.00;;;;;;5074362;28;20116;-77
2021/07/04 12:33:07;;;;;;;5.68;3.83;;;25.60;48.30;;;;;;5074534;28;20451;-77
2021/07/04 12:35:45;;;;;;;5.82;4.00;;;25.70;48.80;;;;;;5073426;28;20020;-77
2021/07/04 12:38:17;;;;;;;5.72;3.70;;;25.50;49.50;;;;;;5073429;28;20021;-77
2021/07/04 12:40:46;;;;;;;5.07;4.53;;;25.10;49.60;;;;;;5074829;28;20126;-77
2021/07/04 12:43:13;;;;;;;4.13;3.78;;;24.90;49.20;;;;;;5073099;28;20079;-77
2021/07/04 12:45:47;;;;;;;4.43;4.03;;;24.90;49.60;;;;;;5075201;28;20085;-77
2021/07/04 12:48:14;;;;;;;5.85;3.85;;;24.70;49.50;;;;;;5071906;28;20054;-77